Time;durP1;ratioP1;P1;durP2;ratioP2;P2;SDS_P1;SDS_P2;PMS_P1;PMS_P2;Temp;Humidity;BMP_temperature;BMP_pressure;BME280_temperature;BME280_humidity;BME280_pressure;Samples;Min_cycle;Max_cycle;Signal;HPM_P1;HPM_P2
2022/10/12 00:00:44;;;;;;;;;;;18.20;99.90;;;;;;5065479;28;20018;-78
2022/10/12 00:03:11;;;;;;;;;;;18.20;99.90;;;;;;5064318;28;19971;-78
2022/10/12 00:05:39;;;;;;;;;;;18.10;99.90;;;;;;5053676;28;20014;-79
2022/10/12 00:08:05;;;;;;;;;;;18.10;99.90;;;;;;5067192;28;19912;-78
2022/10/12 00:10:31;;;;;;;;;;;18.10;99.90;;;;;;5067125;28;19923;-79
2022/10/12 00:12:57;;;;;;;;;;;18.10;99.90;;;;;;5068108;28;19929;-77
2022/10/12 00:15:23;;;;;;;;;;;18.00;99.90;;;;;;5066467;28;19920;-79
2022/10/12 00:17:48;;;;;;;;;;;18.00;99.90;;;;;;5051502;28;19920;-78
2022/10/12 00:20:14;;;;;;;;;;;18.00;99.90;;;;;;5068357;28;19916;-77
2022/10/12 00:22:40;;;;;;;;;;;18.00;99.90;;;;;;5073372;28;19999;-78
2022/10/12 00:25:06;;;;;;;;;;;18.00;99.90;;;;;;5071921;28;19912;-77
2022/10/12 00:27:35;;;;;;;;;;;17.90;99.90;;;;;;5064879;28;20043;-78
2022/10/12 00:30:03;;;;;;;;;;;17.90;99.90;;;;;;5050329;28;19919;-79
2022/10/12 00:32:31;;;;;;;;;;;18.00;99.90;;;;;;5051115;28;20365;-78
2022/10/12 00:34:57;;;;;;;;;;;17.90;99.90;;;;;;5052047;28;19966;-78
2022/10/12 00:37:25;;;;;;;;;;;17.90;99.90;;;;;;5069313;28;20464;-77
2022/10/12 00:39:53;;;;;;;;;;;17.90;99.90;;;;;;5070577;28;19927;-78
2022/10/12 00:42:22;;;;;;;;;;;18.00;99.90;;;;;;5053866;28;19956;-78
2022/10/12 00:44:49;;;;;;;;;;;17.90;99.90;;;;;;5073488;28;20353;-78
2022/10/12 00:47:17;;;;;;;;;;;17.90;99.90;;;;;;5071957;28;19916;-77
2022/10/12 00:49:45;;;;;;;;;;;17.90;99.90;;;;;;5068065;28;19978;-78
2022/10/12 00:52:14;;;;;;;;;;;17.90;99.90;;;;;;5070230;28;19913;-78
2022/10/12 00:54:42;;;;;;;;;;;17.90;99.90;;;;;;5072143;28;20007;-78
2022/10/12 00:57:10;;;;;;;;;;;17.90;99.90;;;;;;5056033;28;19921;-78
2022/10/12 00:59:46;;;;;;;;;;;17.90;99.90;;;;;;5056346;28;19912;-79
2022/10/12 01:02:12;;;;;;;;;;;17.90;99.90;;;;;;5069571;28;20426;-78
2022/10/12 01:04:50;;;;;;;;;;;17.90;99.90;;;;;;5064365;28;19912;-78
2022/10/12 01:07:18;;;;;;;;;;;17.90;99.90;;;;;;5083064;28;19951;-78
2022/10/12 01:09:45;;;;;;;;;;;17.90;99.90;;;;;;5064399;28;20003;-78
2022/10/12 01:12:11;;;;;;;;;;;17.80;99.90;;;;;;5081459;28;20349;-77
2022/10/12 01:14:36;;;;;;;;;;;17.80;99.90;;;;;;5075388;28;20406;-79
2022/10/12 01:17:02;;;;;;;;;;;17.80;99.90;;;;;;5070769;28;19939;-78
2022/10/12 01:19:51;;;;;;;;;;;17.80;99.90;;;;;;5075186;28;19913;-78
2022/10/12 01:22:18;;;;;;;;;;;17.80;99.90;;;;;;5067815;28;19973;-78
2022/10/12 01:24:51;;;;;;;;;;;17.80;99.90;;;;;;5073450;28;19972;-79
2022/10/12 01:27:20;;;;;;;;;;;17.80;99.90;;;;;;5077151;28;20454;-78
2022/10/12 01:29:49;;;;;;;;;;;17.90;99.90;;;;;;5076286;28;19908;-78
2022/10/12 01:32:20;;;;;;;;;;;17.90;99.90;;;;;;5076693;28;19912;-79
2022/10/12 01:34:59;;;;;;;;;;;17.90;99.90;;;;;;5058334;28;19919;-78
2022/10/12 01:37:27;;;;;;;;;;;17.90;99.90;;;;;;5076703;28;19967;-78
2022/10/12 01:39:55;;;;;;;;;;;17.90;99.90;;;;;;5075525;28;19909;-79
2022/10/12 01:42:27;;;;;;;;;;;17.90;99.90;;;;;;5076242;28;20433;-78
2022/10/12 01:45:03;;;;;;;;;;;18.00;99.90;;;;;;5076514;28;20488;-78
2022/10/12 01:47:29;;;;;;;;;;;18.00;99.90;;;;;;5076736;28;20002;-78
2022/10/12 01:49:56;;;;;;;;;;;18.00;99.90;;;;;;5075654;28;19944;-78
2022/10/12 01:52:25;;;;;;;;;;;18.00;99.90;;;;;;5075657;28;19908;-78
2022/10/12 01:55:10;;;;;;;;;;;18.00;99.90;;;;;;5073505;28;19908;-78
2022/10/12 01:57:38;;;;;;;;;;;18.00;99.90;;;;;;5055546;28;20358;-78
2022/10/12 02:00:14;;;;;;;;;;;18.00;99.90;;;;;;5070951;28;19915;-78
2022/10/12 02:02:49;;;;;;;;;;;18.10;99.90;;;;;;5055413;28;20291;-78
2022/10/12 02:05:33;;;;;;;;;;;18.20;99.90;;;;;;5055906;28;19913;-78
2022/10/12 02:08:18;;;;;;;;;;;18.20;99.90;;;;;;5058533;28;19912;-78
2022/10/12 02:10:47;;;;;;;;;;;18.20;99.90;;;;;;5081051;28;19924;-78
2022/10/12 02:13:14;;;;;;;;;;;18.20;99.90;;;;;;5068642;28;20009;-77
2022/10/12 02:15:41;;;;;;;;;;;18.20;99.90;;;;;;5061089;28;20147;-77
2022/10/12 02:18:08;;;;;;;;;;;18.20;99.90;;;;;;5057539;28;19912;-78
2022/10/12 02:20:36;;;;;;;;;;;18.20;99.90;;;;;;5057119;28;19963;-79
2022/10/12 02:23:02;;;;;;;;;;;18.20;99.90;;;;;;5075200;28;19908;-79
2022/10/12 02:25:32;;;;;;;;;;;18.20;99.90;;;;;;5075124;28;19908;-78
2022/10/12 02:28:01;;;;;;;;;;;18.30;99.90;;;;;;5056697;28;19908;-78
2022/10/12 02:30:29;;;;;;;;;;;18.30;99.90;;;;;;5075087;28;19916;-78
2022/10/12 02:33:00;;;;;;;;;;;18.30;99.90;;;;;;5075130;28;19947;-79
2022/10/12 02:35:26;;;;;;;;;;;18.40;99.90;;;;;;5075175;28;20574;-78
2022/10/12 02:37:53;;;;;;;;;;;18.30;99.90;;;;;;5074990;28;19952;-80
2022/10/12 02:40:34;;;;;;;;;;;18.40;99.90;;;;;;5069759;28;20350;-78
2022/10/12 02:43:04;;;;;;;;;;;18.30;99.90;;;;;;5066596;28;19947;-79
2022/10/12 02:45:31;;;;;;;;;;;18.30;99.90;;;;;;5066017;28;20405;-78
2022/10/12 02:47:58;;;;;;;;;;;18.30;99.90;;;;;;5070093;28;19989;-78
2022/10/12 02:50:24;;;;;;;;;;;18.30;99.90;;;;;;5070400;28;19924;-78
2022/10/12 02:52:51;;;;;;;;;;;18.30;99.90;;;;;;5081875;28;19920;-78
2022/10/12 02:55:17;;;;;;;;;;;18.30;99.90;;;;;;5070515;28;19916;-78
2022/10/12 02:57:43;;;;;;;;;;;18.40;99.90;;;;;;5069335;28;19920;-78
2022/10/12 03:00:09;;;;;;;;;;;18.40;99.90;;;;;;5072002;28;19913;-78
2022/10/12 03:02:35;;;;;;;;;;;18.50;99.90;;;;;;5068891;28;19943;-77
2022/10/12 03:05:01;;;;;;;;;;;18.50;99.90;;;;;;5067141;28;20358;-78
2022/10/12 03:07:27;;;;;;;;;;;18.50;99.90;;;;;;5051853;28;20019;-78
2022/10/12 03:09:53;;;;;;;;;;;18.50;99.90;;;;;;5056083;28;19920;-79
2022/10/12 03:12:18;;;;;;;;;;;18.50;99.90;;;;;;5070127;28;19912;-79
2022/10/12 03:14:44;;;;;;;;;;;18.50;99.90;;;;;;5067035;28;19923;-78
2022/10/12 03:17:10;;;;;;;;;;;18.50;99.90;;;;;;5066041;28;19966;-78
2022/10/12 03:19:38;;;;;;;;;;;18.50;99.90;;;;;;5065176;28;19935;-79
2022/10/12 03:22:04;;;;;;;;;;;18.50;99.90;;;;;;5074035;28;19913;-78
2022/10/12 03:24:30;;;;;;;;;;;18.50;99.90;;;;;;5055120;28;19935;-78
2022/10/12 03:26:56;;;;;;;;;;;18.50;99.90;;;;;;5074000;28;19921;-78
2022/10/12 03:29:21;;;;;;;;;;;18.50;99.90;;;;;;5071487;28;19918;-78
2022/10/12 03:31:47;;;;;;;;;;;18.40;99.90;;;;;;5069652;28;19989;-78
2022/10/12 03:34:13;;;;;;;;;;;18.30;99.90;;;;;;5051773;28;20004;-79
2022/10/12 03:36:38;;;;;;;;;;;18.30;99.90;;;;;;5072516;28;20285;-78
2022/10/12 03:39:04;;;;;;;;;;;18.30;99.90;;;;;;5057532;28;19908;-77
2022/10/12 03:41:30;;;;;;;;;;;18.30;99.90;;;;;;5072682;28;19916;-78
2022/10/12 03:43:56;;;;;;;;;;;18.20;99.90;;;;;;5072005;28;19913;-78
2022/10/12 03:46:22;;;;;;;;;;;18.20;99.90;;;;;;5073627;28;19908;-78
2022/10/12 03:48:47;;;;;;;;;;;18.20;99.90;;;;;;5055428;28;19963;-78
2022/10/12 03:51:13;;;;;;;;;;;18.20;99.90;;;;;;5074000;28;19908;-78
2022/10/12 03:53:39;;;;;;;;;;;18.20;99.90;;;;;;5052151;28;19917;-78
2022/10/12 03:56:04;;;;;;;;;;;18.30;99.90;;;;;;5072082;28;19924;-78
2022/10/12 03:58:30;;;;;;;;;;;18.30;99.90;;;;;;5073206;28;20011;-78
2022/10/12 04:00:56;;;;;;;;;;;18.30;99.90;;;;;;5072998;28;19916;-78
2022/10/12 04:03:21;;;;;;;;;;;18.30;99.90;;;;;;5073821;28;19940;-78
2022/10/12 04:05:54;;;;;;;;;;;18.30;99.90;;;;;;5072741;28;19966;-78
2022/10/12 04:08:20;;;;;;;;;;;18.30;99.90;;;;;;5065331;28;20288;-78
2022/10/12 04:10:45;;;;;;;;;;;18.20;99.90;;;;;;5072590;28;19993;-79
2022/10/12 04:13:11;;;;;;;;;;;18.10;99.90;;;;;;5074615;28;20472;-78
2022/10/12 04:15:37;;;;;;;;;;;18.10;99.90;;;;;;5074305;28;19916;-78
2022/10/12 04:18:02;;;;;;;;;;;18.00;99.90;;;;;;5059091;28;19919;-77
2022/10/12 04:20:28;;;;;;;;;;;18.00;99.90;;;;;;5075147;28;19919;-79
2022/10/12 04:22:54;;;;;;;;;;;18.00;99.90;;;;;;5077608;28;19944;-78
2022/10/12 04:25:20;;;;;;;;;;;17.90;99.90;;;;;;5076129;28;19912;-79
2022/10/12 04:27:45;;;;;;;;;;;17.90;99.90;;;;;;5076721;28;19912;-78
2022/10/12 04:30:11;;;;;;;;;;;17.80;99.90;;;;;;5077192;28;19912;-77
2022/10/12 04:32:37;;;;;;;;;;;17.80;99.90;;;;;;5077537;28;19926;-78
2022/10/12 04:35:03;;;;;;;;;;;17.80;99.90;;;;;;5077368;28;19944;-78
2022/10/12 04:37:29;;;;;;;;;;;17.70;99.90;;;;;;5077289;28;20301;-78
2022/10/12 04:39:54;;;;;;;;;;;17.80;99.90;;;;;;5060166;28;19909;-78
2022/10/12 04:42:20;;;;;;;;;;;17.80;99.90;;;;;;5078056;28;19912;-78
2022/10/12 04:44:46;;;;;;;;;;;17.80;99.90;;;;;;5077502;28;20070;-79
2022/10/12 04:47:12;;;;;;;;;;;17.80;99.90;;;;;;5057942;28;19959;-78
2022/10/12 04:49:38;;;;;;;;;;;17.80;99.90;;;;;;5062069;28;19913;-78
2022/10/12 04:52:03;;;;;;;;;;;17.70;99.90;;;;;;5077574;28;19909;-78
2022/10/12 04:54:31;;;;;;;;;;;17.80;99.90;;;;;;5059352;28;19993;-77
2022/10/12 04:56:57;;;;;;;;;;;17.70;99.90;;;;;;5077260;28;19958;-78
2022/10/12 04:59:23;;;;;;;;;;;17.60;99.90;;;;;;5076887;28;20313;-80
2022/10/12 05:01:49;;;;;;;;;;;17.50;99.90;;;;;;5075881;28;19917;-78
2022/10/12 05:04:14;;;;;;;;;;;17.50;99.90;;;;;;5039217;28;19913;-78
2022/10/12 05:06:40;;;;;;;;;;;17.50;99.90;;;;;;5060268;28;19919;-77
2022/10/12 05:09:06;;;;;;;;;;;17.40;99.90;;;;;;5074079;28;19913;-79
2022/10/12 05:11:32;;;;;;;;;;;17.40;99.90;;;;;;5075913;28;19912;-78
2022/10/12 05:13:57;;;;;;;;;;;17.40;99.90;;;;;;5077092;28;19912;-78
2022/10/12 05:16:23;;;;;;;;;;;17.40;99.90;;;;;;5077063;28;19958;-78
2022/10/12 05:18:49;;;;;;;;;;;17.40;99.90;;;;;;5074943;28;19912;-78
2022/10/12 05:21:14;;;;;;;;;;;17.40;99.90;;;;;;5068657;28;19920;-78
2022/10/12 05:23:40;;;;;;;;;;;17.40;99.90;;;;;;5076939;28;19912;-79
2022/10/12 05:26:06;;;;;;;;;;;17.40;99.90;;;;;;5076533;28;20484;-77
2022/10/12 05:28:32;;;;;;;;;;;17.40;99.90;;;;;;5070336;28;19916;-78
2022/10/12 05:30:58;;;;;;;;;;;17.40;99.90;;;;;;5076084;28;19920;-77
2022/10/12 05:33:24;;;;;;;;;;;17.50;99.90;;;;;;5076430;28;19962;-78
2022/10/12 05:35:50;;;;;;;;;;;17.50;99.90;;;;;;5076337;28;19913;-75
2022/10/12 05:38:15;;;;;;;;;;;17.50;99.90;;;;;;5076989;28;19916;-75
2022/10/12 05:40:42;;;;;;;;;;;17.50;99.90;;;;;;5076839;28;19952;-74
2022/10/12 05:43:07;;;;;;;;;;;17.50;99.90;;;;;;5074559;28;20408;-75
2022/10/12 05:45:33;;;;;;;;;;;17.50;99.90;;;;;;5078068;28;19917;-75
2022/10/12 05:47:59;;;;;;;;;;;17.50;99.90;;;;;;5056678;28;19971;-75
2022/10/12 05:50:24;;;;;;;;;;;17.50;99.90;;;;;;5078916;28;19932;-74
2022/10/12 05:52:50;;;;;;;;;;;17.60;99.90;;;;;;5061147;28;19970;-74
2022/10/12 05:55:16;;;;;;;;;;;17.60;99.90;;;;;;5065030;28;19919;-75
2022/10/12 05:57:42;;;;;;;;;;;17.60;99.90;;;;;;5083938;28;19914;-75
2022/10/12 06:00:08;;;;;;;;;;;17.50;99.90;;;;;;5080651;28;19912;-74
2022/10/12 06:02:33;;;;;;;;;;;17.50;99.90;;;;;;5059356;28;19916;-76
2022/10/12 06:04:59;;;;;;;;;;;17.50;99.90;;;;;;5075745;28;19908;-73
2022/10/12 06:07:25;;;;;;;;;;;17.50;99.90;;;;;;5073227;28;19920;-73
2022/10/12 06:09:51;;;;;;;;;;;17.50;99.90;;;;;;5072454;28;19909;-73
2022/10/12 06:12:17;;;;;;;;;;;17.50;99.90;;;;;;5064823;28;19921;-75
2022/10/12 06:14:42;;;;;;;;;;;17.50;99.90;;;;;;5075274;28;19912;-73
2022/10/12 06:17:08;;;;;;;;;;;17.60;99.90;;;;;;5073566;28;19912;-74
2022/10/12 06:19:34;;;;;;;;;;;17.70;99.90;;;;;;5060027;28;20374;-73
2022/10/12 06:22:00;;;;;;;;;;;17.80;99.90;;;;;;5071979;28;19967;-73
2022/10/12 06:24:26;;;;;;;;;;;17.80;99.90;;;;;;5071092;28;19916;-73
2022/10/12 06:26:51;;;;;;;;;;;17.90;99.90;;;;;;5055563;28;19917;-74
2022/10/12 06:29:17;;;;;;;;;;;17.90;99.90;;;;;;5072916;28;19913;-73
2022/10/12 06:31:43;;;;;;;;;;;17.90;99.90;;;;;;5072960;28;19990;-74
2022/10/12 06:34:09;;;;;;;;;;;17.90;99.90;;;;;;5073706;28;21351;-76
2022/10/12 06:36:34;;;;;;;;;;;17.90;99.90;;;;;;5071859;28;19913;-73
2022/10/12 06:39:00;;;;;;;;;;;17.90;99.90;;;;;;5071077;28;19924;-74
2022/10/12 06:41:26;;;;;;;;;;;18.00;99.90;;;;;;5053994;28;19992;-73
2022/10/12 06:43:52;;;;;;;;;;;18.10;99.90;;;;;;5070881;28;20015;-73
2022/10/12 06:46:17;;;;;;;;;;;18.10;99.90;;;;;;5071969;28;19947;-74
2022/10/12 06:48:43;;;;;;;;;;;18.10;99.90;;;;;;5072425;28;19916;-73
2022/10/12 06:51:09;;;;;;;;;;;18.10;99.90;;;;;;5070121;28;19920;-73
2022/10/12 06:53:35;;;;;;;;;;;18.10;99.90;;;;;;5079686;28;19912;-74
2022/10/12 06:56:05;;;;;;;;;;;18.20;99.90;;;;;;5085735;28;19953;-73
2022/10/12 06:58:31;;;;;;;;;;;18.30;99.90;;;;;;5064055;28;20411;-74
2022/10/12 07:00:56;;;;;;;;;;;18.40;99.90;;;;;;5083351;28;19924;-74
2022/10/12 07:03:22;;;;;;;;;;;18.50;99.90;;;;;;5081630;28;19909;-73
2022/10/12 07:05:48;;;;;;;;;;;18.50;99.90;;;;;;5059628;28;19935;-74
2022/10/12 07:08:13;;;;;;;;;;;18.60;99.90;;;;;;5055185;28;19908;-73
2022/10/12 07:10:39;;;;;;;;;;;18.80;99.90;;;;;;5074559;28;19965;-74
2022/10/12 07:13:05;;;;;;;;;;;18.90;99.90;;;;;;5075702;28;19974;-74
2022/10/12 07:15:30;;;;;;;;;;;18.90;99.90;;;;;;5061947;28;19912;-74
2022/10/12 07:17:56;;;;;;;;;;;19.00;99.90;;;;;;5077693;28;19919;-73
2022/10/12 07:20:22;;;;;;;;;;;18.90;99.90;;;;;;5071183;28;19912;-73
2022/10/12 07:22:47;;;;;;;;;;;18.90;99.90;;;;;;5072983;28;20373;-73
2022/10/12 07:25:13;;;;;;;;;;;18.80;99.90;;;;;;5071746;28;19927;-73
2022/10/12 07:27:39;;;;;;;;;;;18.90;99.90;;;;;;5072126;28;19912;-73
2022/10/12 07:30:05;;;;;;;;;;;19.00;99.90;;;;;;5072408;28;19919;-73
2022/10/12 07:32:30;;;;;;;;;;;19.00;99.90;;;;;;5052937;28;19956;-74
2022/10/12 07:34:56;;;;;;;;;;;19.00;99.90;;;;;;5070168;28;19952;-74
2022/10/12 07:37:22;;;;;;;;;;;19.00;99.90;;;;;;5053985;28;19919;-73
2022/10/12 07:39:48;;;;;;;;;;;19.10;99.90;;;;;;5054104;28;19920;-73
2022/10/12 07:42:14;;;;;;;;;;;19.10;99.90;;;;;;5070828;28;20277;-73
2022/10/12 07:44:39;;;;;;;;;;;19.10;99.90;;;;;;5054370;28;19913;-74
2022/10/12 07:47:05;;;;;;;;;;;19.10;99.90;;;;;;5071713;28;19977;-74
2022/10/12 07:49:31;;;;;;;;;;;19.10;99.90;;;;;;5061022;28;19915;-73
2022/10/12 07:51:56;;;;;;;;;;;19.10;99.90;;;;;;5077437;28;19916;-72
2022/10/12 07:54:22;;;;;;;;;;;19.30;99.90;;;;;;5074886;28;19913;-73
2022/10/12 07:56:48;;;;;;;;;;;19.40;99.90;;;;;;5076769;28;19923;-73
2022/10/12 07:59:14;;;;;;;;;;;19.50;99.90;;;;;;5076681;28;20347;-73
2022/10/12 08:01:40;;;;;;;;;;;19.60;99.90;;;;;;5078323;28;19920;-74
2022/10/12 08:04:06;;;;;;;;;;;19.70;99.90;;;;;;5078133;28;19965;-73
2022/10/12 08:06:32;;;;;;;;;;;19.70;99.90;;;;;;5076238;28;19912;-73
2022/10/12 08:08:59;;;;;;;;;;;19.80;99.90;;;;;;5080716;28;19960;-73
2022/10/12 08:11:25;;;;;;;;;;;19.90;99.90;;;;;;5077192;28;20335;-74
2022/10/12 08:13:50;;;;;;;;;;;19.90;99.90;;;;;;5077499;28;20004;-73
2022/10/12 08:16:17;;;;;;;;;;;19.90;99.90;;;;;;5078313;28;19909;-73
2022/10/12 08:18:43;;;;;;;;;;;20.00;99.90;;;;;;5078156;28;19919;-76
2022/10/12 08:21:09;;;;;;;;;;;20.00;99.90;;;;;;5077687;28;19925;-75
2022/10/12 08:23:35;;;;;;;;;;;20.00;99.90;;;;;;5078917;28;20321;-75
2022/10/12 08:26:01;;;;;;;;;;;20.10;99.90;;;;;;5078537;28;20020;-75
2022/10/12 08:28:27;;;;;;;;;;;20.10;99.90;;;;;;5078961;28;20394;-75
2022/10/12 08:30:53;;;;;;;;;;;20.10;99.90;;;;;;5078135;28;19921;-74
2022/10/12 08:33:19;;;;;;;;;;;20.10;99.90;;;;;;5078824;28;19912;-74
2022/10/12 08:35:45;;;;;;;;;;;20.10;99.90;;;;;;5060505;28;20489;-75
2022/10/12 08:38:11;;;;;;;;;;;20.20;99.90;;;;;;5059948;28;19913;-76
2022/10/12 08:40:51;;;;;;;;;;;20.20;99.90;;;;;;5075625;28;19913;-78
2022/10/12 08:43:23;;;;;;;;;;;20.30;99.90;;;;;;5075555;28;19923;-75
2022/10/12 08:45:53;;;;;;;;;;;20.50;99.90;;;;;;5075234;28;19912;-75
2022/10/12 08:48:25;;;;;;;;;;;20.60;99.90;;;;;;5077652;28;19919;-76
2022/10/12 08:50:52;;;;;;;;;;;20.50;99.90;;;;;;5078120;28;20013;-74
2022/10/12 08:53:18;;;;;;;;;;;20.50;99.90;;;;;;5077936;28;19919;-75
2022/10/12 08:55:44;;;;;;;;;;;20.40;99.90;;;;;;5059912;28;19916;-80
2022/10/12 08:58:24;;;;;;;;;;;20.30;99.90;;;;;;5076463;28;19924;-76
2022/10/12 09:00:52;;;;;;;;;;;20.30;99.90;;;;;;5072700;28;20289;-75
2022/10/12 09:03:18;;;;;;;;;;;20.30;99.90;;;;;;5056236;28;20377;-77
2022/10/12 09:05:49;;;;;;;;;;;20.40;99.90;;;;;;5075650;28;20046;-74
2022/10/12 09:08:33;;;;;;;;;;;20.40;99.90;;;;;;5073041;28;19923;-76
2022/10/12 09:11:06;;;;;;;;;;;20.50;99.90;;;;;;5056173;28;19913;-76
2022/10/12 09:13:53;;;;;;;;;;;20.50;99.90;;;;;;5057597;28;19929;-78
2022/10/12 09:16:27;;;;;;;;;;;20.50;99.90;;;;;;5074948;28;20263;-76
2022/10/12 09:19:13;;;;;;;;;;;20.50;99.90;;;;;;5073718;28;19916;-75
2022/10/12 09:21:41;;;;;;;;;;;20.50;99.90;;;;;;5056031;28;19967;-75
2022/10/12 09:24:12;;;;;;;;;;;20.40;99.90;;;;;;5074551;28;19916;-76
2022/10/12 09:26:40;;;;;;;;;;;20.50;99.90;;;;;;5074236;28;19943;-75
2022/10/12 09:29:16;;;;;;;;;;;20.50;99.90;;;;;;5074603;28;20285;-75
2022/10/12 09:31:42;;;;;;;;;;;20.70;99.90;;;;;;5073813;28;19948;-75
2022/10/12 09:34:08;;;;;;;;;;;20.70;99.90;;;;;;5074545;28;20324;-75
2022/10/12 09:36:35;;;;;;;;;;;20.70;99.90;;;;;;5074053;28;19931;-74
2022/10/12 09:39:12;;;;;;;;;;;20.60;99.90;;;;;;5073437;28;20383;-76
2022/10/12 09:41:42;;;;;;;;;;;20.50;99.90;;;;;;5073818;28;19932;-75
2022/10/12 09:44:14;;;;;;;;;;;20.50;99.90;;;;;;5074155;28;19912;-75
2022/10/12 09:46:57;;;;;;;;;;;20.60;99.90;;;;;;5074047;28;20003;-75
2022/10/12 09:49:38;;;;;;;;;;;20.60;99.90;;;;;;5068241;28;20015;-75
2022/10/12 09:52:03;;;;;;;;;;;20.70;99.90;;;;;;5072513;28;20576;-75
2022/10/12 09:54:29;;;;;;;;;;;20.80;99.90;;;;;;5074478;28;20026;-77
2022/10/12 09:56:55;;;;;;;;;;;20.80;99.90;;;;;;5072460;28;20417;-75
2022/10/12 09:59:24;;;;;;;;;;;20.80;99.90;;;;;;5072617;28;20354;-75
2022/10/12 10:01:57;;;;;;;;;;;20.80;99.90;;;;;;5072576;28;20294;-76
2022/10/12 10:04:24;;;;;;;;;;;20.80;99.90;;;;;;5073412;28;19912;-74
2022/10/12 10:06:49;;;;;;;;;;;20.80;99.90;;;;;;5054607;28;19991;-77
2022/10/12 10:09:32;;;;;;;;;;;20.90;99.90;;;;;;5045938;28;19991;-75
2022/10/12 10:12:11;;;;;;;;;;;21.00;99.90;;;;;;5054790;28;19917;-75
2022/10/12 10:14:37;;;;;;;;;;;21.10;99.90;;;;;;5073093;28;19970;-77
2022/10/12 10:17:03;;;;;;;;;;;21.20;99.90;;;;;;5072387;28;19921;-77
2022/10/12 10:19:28;;;;;;;;;;;21.10;99.90;;;;;;5073537;28;19916;-75
2022/10/12 10:21:54;;;;;;;;;;;21.00;99.90;;;;;;5072140;28;19921;-75
2022/10/12 10:24:28;;;;;;;;;;;21.00;99.90;;;;;;5049089;28;19936;-77
2022/10/12 10:26:55;;;;;;;;;;;21.00;99.90;;;;;;5072958;28;19913;-75
2022/10/12 10:29:21;;;;;;;;;;;21.00;99.90;;;;;;5073619;28;20373;-75
2022/10/12 10:31:47;;;;;;;;;;;20.90;99.90;;;;;;5072839;28;19978;-76
2022/10/12 10:34:16;;;;;;;;;;;21.00;99.90;;;;;;5073589;28;19930;-74
2022/10/12 10:36:46;;;;;;;;;;;21.10;99.90;;;;;;5055046;28;19912;-75
2022/10/12 10:39:23;;;;;;;;;;;21.20;99.90;;;;;;5073310;28;19921;-75
2022/10/12 10:41:49;;;;;;;;;;;21.20;99.90;;;;;;5071504;28;19970;-77
2022/10/12 10:44:28;;;;;;;;;;;21.10;99.90;;;;;;5069076;28;20360;-78
2022/10/12 10:46:59;;;;;;;;;;;21.20;99.90;;;;;;5073175;28;19923;-75
2022/10/12 10:49:32;;;;;;;;;;;21.20;99.90;;;;;;5073035;28;19916;-75
2022/10/12 10:51:58;;;;;;;;;;;21.30;99.90;;;;;;5071737;28;19913;-76
2022/10/12 10:54:24;;;;;;;;;;;21.50;99.90;;;;;;5072597;28;19920;-76
2022/10/12 10:57:11;;;;;;;;;;;21.50;99.90;;;;;;5072038;28;19916;-75
2022/10/12 10:59:40;;;;;;;;;;;21.60;99.90;;;;;;5072830;28;20019;-78
2022/10/12 11:02:09;;;;;;;;;;;21.50;99.90;;;;;;5070923;28;19999;-76
2022/10/12 11:04:38;;;;;;;;;;;21.70;99.90;;;;;;5070179;28;19920;-75
2022/10/12 11:07:15;;;;;;;;;;;21.70;99.90;;;;;;5068822;28;19965;-76
2022/10/12 11:09:43;;;;;;;;;;;21.70;99.90;;;;;;5086718;28;20333;-76
2022/10/12 11:12:13;;;;;;;;;;;21.70;99.90;;;;;;5072167;28;19912;-76
2022/10/12 11:14:42;;;;;;;;;;;21.70;99.90;;;;;;5072796;28;19916;-76
2022/10/12 11:17:17;;;;;;;;;;;21.80;99.90;;;;;;5072731;28;19919;-75
2022/10/12 11:20:01;;;;;;;;;;;21.80;99.90;;;;;;5072991;28;20278;-76
2022/10/12 11:22:31;;;;;;;;;;;21.90;99.90;;;;;;5054426;28;19916;-76
2022/10/12 11:25:17;;;;;;;;;;;22.00;99.90;;;;;;5073675;28;19908;-76
2022/10/12 11:27:43;;;;;;;;;;;22.00;99.90;;;;;;5040872;28;20225;-76
2022/10/12 11:30:17;;;;;;;;;;;22.00;99.90;;;;;;5068379;28;20647;-75
2022/10/12 11:32:46;;;;;;;;;;;22.00;99.90;;;;;;5072224;28;19923;-75
2022/10/12 11:35:16;;;;;;;;;;;22.10;99.90;;;;;;5072930;28;20502;-75
2022/10/12 11:37:48;;;;;;;;;;;22.00;99.90;;;;;;5072415;28;19909;-76
2022/10/12 11:40:18;;;;;;;;;;;22.10;99.90;;;;;;5073419;28;19913;-75
2022/10/12 11:42:45;;;;;;;;;;;22.10;99.90;;;;;;5070813;28;19916;-75
2022/10/12 11:45:21;;;;;;;;;;;22.10;99.90;;;;;;5071417;28;19912;-74
2022/10/12 11:47:48;;;;;;;;;;;22.20;99.90;;;;;;5056868;28;19912;-75
2022/10/12 11:50:17;;;;;;;;;;;22.30;99.90;;;;;;5058177;28;19969;-74
2022/10/12 11:52:44;;;;;;;;;;;22.20;99.90;;;;;;5079165;28;19914;-74
2022/10/12 11:55:29;;;;;;;;;;;22.20;99.90;;;;;;5069599;28;19947;-74
2022/10/12 11:57:57;;;;;;;;;;;22.20;99.90;;;;;;5074034;28;19923;-75
2022/10/12 12:00:26;;;;;;;;;;;22.30;99.90;;;;;;5068910;28;19912;-74
2022/10/12 12:02:55;;;;;;;;;;;22.30;99.90;;;;;;5069400;28;19960;-74
2022/10/12 12:05:20;;;;;;;;;;;22.30;99.90;;;;;;5070468;28;19912;-75
2022/10/12 12:07:47;;;;;;;;;;;22.40;99.90;;;;;;5070037;28;19926;-75
2022/10/12 12:10:26;;;;;;;;;;;22.50;99.90;;;;;;5072416;28;19921;-74
2022/10/12 12:13:11;;;;;;;;;;;22.70;99.90;;;;;;5054345;28;19909;-74
2022/10/12 12:15:38;;;;;;;;;;;22.60;99.90;;;;;;5072406;28;19912;-75
2022/10/12 12:18:10;;;;;;;;;;;22.60;99.90;;;;;;5073220;28;19928;-75
2022/10/12 12:20:42;;;;;;;;;;;22.60;99.90;;;;;;5073037;28;19924;-75
2022/10/12 12:23:37;;;;;;;;;;;22.60;99.90;;;;;;5071596;28;19970;-75
2022/10/12 12:26:09;;;;;;;;;;;22.50;99.90;;;;;;5072349;28;20370;-76
2022/10/12 12:28:43;;;;;;;;;;;22.50;99.90;;;;;;5071788;28;20008;-76
2022/10/12 12:31:21;;;;;;;;;;;22.50;99.90;;;;;;5084670;28;19913;-76
2022/10/12 12:33:47;;;;;;;;;;;22.70;99.90;;;;;;5056646;28;19916;-75
2022/10/12 12:36:33;;;;;;;;;;;22.70;99.90;;;;;;5087102;28;20045;-76
2022/10/12 12:38:59;;;;;;;;;;;22.90;99.90;;;;;;5085034;28;19913;-76
2022/10/12 12:41:44;;;;;;;;;;;22.90;99.90;;;;;;5099514;28;19916;-78
2022/10/12 12:44:29;;;;;;;;;;;23.00;99.90;;;;;;5080161;28;20389;-76
2022/10/12 12:46:58;;;;;;;;;;;22.90;99.90;;;;;;5076764;28;19913;-77
2022/10/12 12:49:26;;;;;;;;;;;22.90;99.90;;;;;;5079374;28;20062;-76
2022/10/12 12:51:53;;;;;;;;;;;22.80;99.90;;;;;;5090416;28;19944;-75
2022/10/12 12:54:21;;;;;;;;;;;22.90;99.90;;;;;;5082399;28;19917;-77
2022/10/12 12:56:51;;;;;;;;;;;22.90;99.90;;;;;;5082953;28;20031;-77
2022/10/12 12:59:28;;;;;;;;;;;22.90;99.90;;;;;;5062219;28;19943;-77
2022/10/12 13:01:53;;;;;;;;;;;23.00;99.90;;;;;;5079319;28;20161;-78
2022/10/12 13:04:22;;;;;;;;;;;23.00;99.90;;;;;;5077268;28;20355;-76
2022/10/12 13:06:47;;;;;;;;;;;22.90;99.90;;;;;;5075133;28;19916;-76
2022/10/12 13:09:38;;;;;;;;;;;22.70;99.90;;;;;;5074633;28;19934;-76
2022/10/12 13:12:23;;;;;;;;;;;22.70;99.90;;;;;;5072649;28;20267;-76
2022/10/12 13:15:01;;;;;;;;;;;22.70;99.90;;;;;;5076618;28;19919;-76
2022/10/12 13:17:30;;;;;;;;;;;22.80;99.90;;;;;;5077230;28;20070;-75
2022/10/12 13:19:56;;;;;;;;;;;22.80;99.90;;;;;;5076338;28;19959;-76
2022/10/12 13:23:04;;;;;;;;;;;;;;;;;;;;;
2022/10/12 13:25:48;;;;;;;;;;;22.90;99.90;;;;;;5084996;28;19944;-75
2022/10/12 13:28:16;;;;;;;;;;;22.80;99.90;;;;;;5079646;28;20289;-76
2022/10/12 13:30:53;;;;;;;;;;;22.60;99.90;;;;;;5092183;28;19938;-76
2022/10/12 13:33:33;;;;;;;;;;;22.60;99.90;;;;;;5096261;28;19909;-75
2022/10/12 13:36:02;;;;;;;;;;;22.50;99.90;;;;;;5074650;28;19916;-76
2022/10/12 13:38:28;;;;;;;;;;;22.50;99.90;;;;;;5077047;28;19908;-75
2022/10/12 13:41:01;;;;;;;;;;;22.50;99.90;;;;;;5076965;28;19920;-75
2022/10/12 13:43:41;;;;;;;;;;;22.40;99.90;;;;;;5076855;28;19908;-76
2022/10/12 13:46:09;;;;;;;;;;;22.40;99.90;;;;;;5085309;28;19909;-76
2022/10/12 13:48:35;;;;;;;;;;;22.40;99.90;;;;;;5085806;28;19908;-78
2022/10/12 13:51:33;;;;;;;;;;;22.50;99.90;;;;;;5086510;28;19909;-75
2022/10/12 13:54:19;;;;;;;;;;;22.60;99.90;;;;;;5073354;28;19908;-78
2022/10/12 13:57:07;;;;;;;;;;;22.50;99.90;;;;;;5078764;28;20389;-78
2022/10/12 14:00:07;;;;;;;;;;;;;;;;;;;;;
2022/10/12 14:02:33;;;;;;;;;;;22.40;99.90;;;;;;5073193;28;19916;-76
2022/10/12 14:05:09;;;;;;;;;;;22.40;99.90;;;;;;5076389;28;19950;-76
2022/10/12 14:07:38;;;;;;;;;;;22.50;99.90;;;;;;5076292;28;19930;-75
2022/10/12 14:10:37;;;;;;;;;;;;;;;;;;;;;
2022/10/12 14:14:23;;;;;;;;;;;22.50;99.90;;;;;;5078583;28;19931;-76
2022/10/12 14:16:24;;;;;;;;;;;22.60;99.90;;;;;;5022770;28;19920;-75
2022/10/12 14:18:50;;;;;;;;;;;22.40;99.90;;;;;;5001690;28;20365;-76
2022/10/12 14:21:27;;;;;;;;;;;22.30;99.90;;;;;;5034919;28;19913;-78
2022/10/12 14:23:57;;;;;;;;;;;22.20;99.90;;;;;;5042890;28;19963;-76
2022/10/12 14:26:41;;;;;;;;;;;22.10;99.90;;;;;;5039439;28;19915;-75
2022/10/12 14:29:27;;;;;;;;;;;22.00;99.90;;;;;;5057898;28;20000;-76
2022/10/12 14:31:54;;;;;;;;;;;22.10;99.90;;;;;;5072845;28;20015;-76
2022/10/12 14:34:26;;;;;;;;;;;22.10;99.90;;;;;;5077475;28;20142;-76